createdAt,value
2022-10-30T00:04:06.170Z,3.20
2022-10-30T00:09:11.427Z,4.40
2022-10-30T00:14:14.944Z,5.30
2022-10-30T00:19:18.254Z,3.40
2022-10-30T00:24:21.461Z,3.50
2022-10-30T00:29:26.615Z,3.60
2022-10-30T00:34:29.825Z,2.90
2022-10-30T00:39:33.137Z,4.30
2022-10-30T00:44:42.076Z,4.60
2022-10-30T00:50:11.601Z,3.80
2022-10-30T00:55:21.374Z,4.90
2022-10-30T01:00:27.644Z,4.40
2022-10-30T01:05:32.996Z,3.40
2022-10-30T01:10:36.422Z,4.80
2022-10-30T01:15:53.961Z,4.30
2022-10-30T01:21:07.923Z,5.60
2022-10-30T01:26:17.273Z,5.30
2022-10-30T01:31:38.094Z,4.10
2022-10-30T01:36:47.756Z,3.90
2022-10-30T01:41:51.381Z,4.70
2022-10-30T01:47:12.604Z,5.70
2022-10-30T01:52:35.370Z,4.90
2022-10-30T01:57:46.775Z,4.70
2022-10-30T02:02:52.233Z,5.30
2022-10-30T02:07:55.716Z,3.50
2022-10-30T02:12:59.263Z,2.90
2022-10-30T02:18:02.796Z,5.20
2022-10-30T02:23:07.178Z,6.70
2022-10-30T02:28:11.447Z,4.80
2022-10-30T02:33:14.722Z,5.10
2022-10-30T02:38:19.102Z,5.10
2022-10-30T02:48:25.410Z,4.10
2022-10-30T02:53:28.923Z,3.50
2022-10-30T02:58:32.749Z,5.00
2022-10-30T03:03:36.622Z,4.20
2022-10-30T03:08:39.878Z,4.80
2022-10-30T03:18:48.873Z,2.80
2022-10-30T03:23:52.477Z,4.00
2022-10-30T03:28:55.789Z,4.90
2022-10-30T03:33:59.097Z,4.10
2022-10-30T03:39:02.510Z,3.30
2022-10-30T03:44:05.718Z,6.10
2022-10-30T03:49:09.031Z,5.80
2022-10-30T03:54:12.237Z,5.10
2022-10-30T03:59:15.451Z,5.50
2022-10-30T04:04:18.656Z,4.40
2022-10-30T04:09:21.863Z,4.60
2022-10-30T04:14:25.584Z,4.80
2022-10-30T04:19:28.894Z,4.30
2022-10-30T04:24:32.101Z,5.20
2022-10-30T04:29:35.720Z,4.30
2022-10-30T04:34:39.789Z,5.40
2022-10-30T04:39:46.469Z,4.90
2022-10-30T04:44:49.851Z,3.90
2022-10-30T04:49:53.279Z,4.20
2022-10-30T04:54:56.574Z,5.80
2022-10-30T04:59:59.783Z,9.20
2022-10-30T05:05:03.975Z,5.80
2022-10-30T05:10:07.840Z,5.50
2022-10-30T05:15:13.173Z,11.00
2022-10-30T05:20:18.868Z,5.70
2022-10-30T05:25:23.506Z,6.30
2022-10-30T05:30:31.272Z,4.90
2022-10-30T05:35:35.964Z,5.60
2022-10-30T05:40:40.095Z,4.40
2022-10-30T05:45:44.227Z,4.80
2022-10-30T05:50:47.541Z,5.20
2022-10-30T05:55:51.368Z,6.40
2022-10-30T06:00:54.675Z,7.10
2022-10-30T06:05:57.986Z,6.20
2022-10-30T06:11:01.497Z,6.30
2022-10-30T06:16:05.420Z,7.70
2022-10-30T06:21:08.646Z,5.00
2022-10-30T06:26:11.940Z,5.10
2022-10-30T06:31:15.204Z,5.40
2022-10-30T06:36:18.567Z,5.10
2022-10-30T06:41:26.102Z,4.80
2022-10-30T06:46:33.814Z,4.50
2022-10-30T06:51:37.400Z,6.40
2022-10-30T06:56:41.123Z,4.60
2022-10-30T07:01:44.500Z,4.90
2022-10-30T07:06:47.848Z,5.70
2022-10-30T07:11:55.805Z,6.70
2022-10-30T07:17:00.101Z,7.00
2022-10-30T07:22:04.541Z,7.80
2022-10-30T07:27:08.055Z,5.40
2022-10-30T07:32:14.235Z,4.90
2022-10-30T07:37:17.440Z,4.90
2022-10-30T07:42:22.289Z,4.80
2022-10-30T07:47:25.630Z,7.00
2022-10-30T07:52:32.596Z,6.40
2022-10-30T07:57:40.313Z,5.30
2022-10-30T08:02:43.728Z,10.30
2022-10-30T08:07:48.568Z,4.90
2022-10-30T08:12:51.779Z,4.10
2022-10-30T08:17:55.916Z,4.90
2022-10-30T08:23:00.569Z,3.50
2022-10-30T08:28:06.829Z,4.70
2022-10-30T08:33:14.031Z,4.40
2022-10-30T08:38:18.674Z,3.80
2022-10-30T08:43:22.393Z,4.70
2022-10-30T08:48:25.600Z,5.60
2022-10-30T08:53:29.086Z,6.50
2022-10-30T08:58:32.326Z,5.90
2022-10-30T09:03:35.740Z,7.30
2022-10-30T09:08:39.360Z,4.30
2022-10-30T09:13:42.873Z,5.80
2022-10-30T09:18:46.081Z,4.10
2022-10-30T09:23:50.416Z,5.40
2022-10-30T09:28:53.938Z,3.80
2022-10-30T09:33:57.140Z,4.00
2022-10-30T09:39:00.451Z,4.00
2022-10-30T09:44:25.470Z,4.50
2022-10-30T09:50:04.108Z,3.50
2022-10-30T09:55:17.350Z,3.40
2022-10-30T10:00:23.299Z,5.20
2022-10-30T10:05:54.190Z,4.70
2022-10-30T10:11:14.039Z,3.20
2022-10-30T10:16:35.420Z,3.40
2022-10-30T10:21:49.680Z,3.90
2022-10-30T10:26:55.760Z,3.90
2022-10-30T10:32:10.845Z,4.60
2022-10-30T10:37:39.449Z,4.00
2022-10-30T10:42:53.001Z,2.40
2022-10-30T10:53:30.957Z,3.60
2022-10-30T10:58:52.289Z,3.30
2022-10-30T11:04:03.586Z,4.30
2022-10-30T11:09:17.149Z,5.30
2022-10-30T11:14:23.397Z,3.00
2022-10-30T11:19:28.673Z,4.40
2022-10-30T11:24:36.398Z,3.80
2022-10-30T11:30:07.962Z,4.70
2022-10-30T11:35:11.065Z,3.30
2022-10-30T11:40:19.810Z,2.90
2022-10-30T11:45:27.315Z,2.50
2022-10-30T11:50:32.776Z,4.90
2022-10-30T11:55:39.947Z,1.50
2022-10-30T12:00:45.541Z,2.70
2022-10-30T12:05:50.320Z,3.10
2022-10-30T12:10:53.699Z,2.00
2022-10-30T12:16:18.255Z,3.60
2022-10-30T12:21:21.621Z,4.10
2022-10-30T12:26:26.576Z,3.80
2022-10-30T12:31:44.321Z,2.90
2022-10-30T12:36:55.414Z,3.50
2022-10-30T12:42:01.698Z,3.50
2022-10-30T12:47:25.897Z,3.30
2022-10-30T12:52:41.800Z,3.50
2022-10-30T12:57:56.887Z,3.00
2022-10-30T13:03:16.889Z,3.60
2022-10-30T13:08:48.676Z,3.40
2022-10-30T13:13:58.123Z,2.80
2022-10-30T13:19:02.810Z,3.20
2022-10-30T13:24:10.893Z,4.20
2022-10-30T13:29:18.294Z,2.90
2022-10-30T13:34:25.600Z,8.90
2022-10-30T13:39:32.906Z,3.20
2022-10-30T13:44:44.918Z,3.50
2022-10-30T13:50:00.121Z,3.40
2022-10-30T13:55:08.948Z,4.30
2022-10-30T14:00:39.905Z,3.80
2022-10-30T14:06:04.619Z,4.60
2022-10-30T14:11:12.982Z,3.90
2022-10-30T14:16:31.415Z,3.20
2022-10-30T14:21:56.030Z,2.80
2022-10-30T14:27:05.173Z,3.10
2022-10-30T14:32:14.117Z,3.40
2022-10-30T14:37:37.808Z,3.40
2022-10-30T14:42:45.313Z,3.30
2022-10-30T14:48:06.749Z,3.30
2022-10-30T14:53:34.736Z,3.00
2022-10-30T14:58:39.482Z,3.10
2022-10-30T15:04:22.214Z,5.00
2022-10-30T15:09:34.949Z,5.70
2022-10-30T15:14:54.976Z,4.50
2022-10-30T15:20:02.088Z,3.90
2022-10-30T15:25:14.167Z,3.70
2022-10-30T15:30:20.918Z,3.70
2022-10-30T15:35:26.630Z,3.00
2022-10-30T15:40:30.919Z,4.00
2022-10-30T15:45:36.012Z,4.70
2022-10-30T15:50:45.206Z,5.10
2022-10-30T15:55:49.799Z,5.00
2022-10-30T16:00:58.901Z,7.90
2022-10-30T16:06:07.658Z,4.90
2022-10-30T16:11:11.099Z,4.60
2022-10-30T16:16:21.580Z,4.10
2022-10-30T16:21:27.857Z,8.10
2022-10-30T16:26:35.280Z,9.80
2022-10-30T16:31:38.885Z,8.10
2022-10-30T16:42:00.763Z,7.10
2022-10-30T16:47:24.142Z,6.20
2022-10-30T16:52:33.294Z,4.00
2022-10-30T16:57:41.972Z,5.10
2022-10-30T17:02:49.437Z,5.70
2022-10-30T17:07:57.751Z,5.30
2022-10-30T17:13:38.788Z,6.90
2022-10-30T17:18:42.278Z,6.60
2022-10-30T17:23:50.914Z,7.90
2022-10-30T17:28:54.222Z,9.90
2022-10-30T17:34:03.369Z,5.90
2022-10-30T17:39:07.603Z,6.10
2022-10-30T17:44:21.566Z,5.70
2022-10-30T17:49:30.505Z,6.10
2022-10-30T17:54:34.540Z,5.00
2022-10-30T17:59:38.561Z,5.50
2022-10-30T18:04:42.618Z,5.80
2022-10-30T18:09:45.795Z,6.60
2022-10-30T18:14:49.104Z,6.50
2022-10-30T18:19:52.738Z,6.80
2022-10-30T18:24:55.934Z,10.50
2022-10-30T18:29:59.350Z,9.80
2022-10-30T18:35:06.651Z,9.80
2022-10-30T18:40:10.782Z,11.50
2022-10-30T18:45:24.950Z,9.40
2022-10-30T18:50:32.307Z,10.70
2022-10-30T18:55:40.756Z,9.40
2022-10-30T19:01:10.598Z,10.10
2022-10-30T19:06:17.472Z,12.50
2022-10-30T19:11:24.901Z,33.60
2022-10-30T19:16:29.464Z,21.00
2022-10-30T19:21:34.922Z,15.30
2022-10-30T19:26:38.236Z,12.90
2022-10-30T19:31:41.540Z,10.50
2022-10-30T19:36:44.857Z,10.90
2022-10-30T19:41:48.467Z,10.50
2022-10-30T19:46:51.679Z,10.90
2022-10-30T19:51:54.989Z,12.90
2022-10-30T19:56:58.709Z,14.60
2022-10-30T20:02:02.285Z,13.20
2022-10-30T20:07:05.647Z,11.90
2022-10-30T20:12:08.952Z,10.80
2022-10-30T20:17:13.184Z,11.90
2022-10-30T20:22:16.394Z,40.50
2022-10-30T20:27:19.692Z,22.60
2022-10-30T20:32:23.218Z,13.10
2022-10-30T20:37:26.424Z,10.30
2022-10-30T20:42:35.964Z,11.40
2022-10-30T20:47:40.419Z,11.70
2022-10-30T20:52:43.933Z,12.70
2022-10-30T20:57:47.144Z,15.00
2022-10-30T21:02:50.354Z,11.50
2022-10-30T21:07:53.558Z,12.30
2022-10-30T21:12:58.846Z,12.00
2022-10-30T21:18:04.583Z,12.70
2022-10-30T21:23:07.895Z,14.20
2022-10-30T21:28:11.105Z,15.20
2022-10-30T21:33:14.311Z,15.30
2022-10-30T21:38:17.520Z,15.10
2022-10-30T21:43:20.727Z,14.70
2022-10-30T21:48:26.495Z,13.40
2022-10-30T21:53:31.138Z,13.40
2022-10-30T21:58:34.347Z,13.90
2022-10-30T22:03:37.556Z,15.90
2022-10-30T22:08:41.377Z,13.80
2022-10-30T22:13:45.529Z,17.30
2022-10-30T22:18:48.921Z,16.30
2022-10-30T22:23:52.437Z,29.10
2022-10-30T22:28:58.626Z,25.00
2022-10-30T22:34:02.234Z,21.10
2022-10-30T22:39:08.139Z,18.40
2022-10-30T22:44:17.711Z,15.70
2022-10-30T22:49:20.976Z,13.50
2022-10-30T22:54:24.283Z,11.00
2022-10-30T22:59:27.592Z,9.60
2022-10-30T23:04:30.802Z,9.90
2022-10-30T23:09:34.012Z,9.20
2022-10-30T23:14:37.221Z,9.40
2022-10-30T23:19:40.431Z,12.90
2022-10-30T23:24:43.736Z,9.10
2022-10-30T23:29:48.173Z,12.40
2022-10-30T23:34:51.484Z,10.60
2022-10-30T23:39:54.899Z,9.80
2022-10-30T23:44:58.108Z,9.10
2022-10-30T23:50:01.419Z,9.40
2022-10-30T23:55:05.242Z,8.70
